Time;durP1;ratioP1;P1;durP2;ratioP2;P2;SDS_P1;SDS_P2;PMS_P1;PMS_P2;Temp;Humidity;BMP_temperature;BMP_pressure;BME280_temperature;BME280_humidity;BME280_pressure;Samples;Min_cycle;Max_cycle;Signal;HPM_P1;HPM_P2
2021/05/15 00:00:34;;;;;;;3.40;1.20;;;;;;;17.07;68.53;100653.84;5038021;28;20048;-70
2021/05/15 00:03:00;;;;;;;7.78;1.90;;;;;;;17.09;69.15;100659.97;5038742;28;20056;-70
2021/05/15 00:05:27;;;;;;;11.38;1.98;;;;;;;17.26;68.90;100666.59;5036649;28;20043;-69
2021/05/15 00:07:53;;;;;;;9.82;1.65;;;;;;;17.31;68.85;100676.91;5036021;28;20037;-69
2021/05/15 00:10:20;;;;;;;12.23;2.97;;;;;;;17.33;68.64;100668.09;5038241;28;20475;-69
2021/05/15 00:12:46;;;;;;;8.70;2.08;;;;;;;17.35;68.35;100660.16;5035508;28;20550;-69
2021/05/15 00:15:13;;;;;;;10.90;2.08;;;;;;;17.14;68.59;100626.84;5040472;28;20033;-69
2021/05/15 00:17:39;;;;;;;11.90;2.47;;;;;;;17.12;68.26;100617.00;5038754;28;20045;-69
2021/05/15 00:20:12;;;;;;;7.30;2.15;;;;;;;17.34;69.02;100666.97;5040364;28;20048;-70
2021/05/15 00:22:42;;;;;;;5.40;2.00;;;;;;;17.34;68.68;100661.31;5034066;28;20036;-70
2021/05/15 00:25:09;;;;;;;8.05;1.90;;;;;;;17.42;68.47;100666.16;5033615;28;20049;-69
2021/05/15 00:27:36;;;;;;;5.50;1.40;;;;;;;17.39;68.59;100659.16;5038255;28;20033;-67
2021/05/15 00:30:04;;;;;;;4.43;1.85;;;;;;;17.39;68.77;100655.53;5030144;28;20038;-67
2021/05/15 00:32:30;;;;;;;4.85;1.63;;;;;;;17.26;68.82;100641.19;5035171;28;20041;-67
2021/05/15 00:34:55;;;;;;;8.45;1.60;;;;;;;17.28;68.69;100647.31;5039700;28;20403;-69
2021/05/15 00:37:21;;;;;;;8.43;1.65;;;;;;;17.19;68.60;100643.59;5042517;28;20122;-72
2021/05/15 00:39:46;;;;;;;5.47;1.88;;;;;;;16.85;68.49;100579.34;5036738;28;20049;-72
2021/05/15 00:42:12;;;;;;;9.60;1.98;;;;;;;16.95;69.01;100598.00;5041821;28;20546;-72
2021/05/15 00:44:44;;;;;;;8.90;1.92;;;;;;;16.99;68.45;100585.75;5044191;28;20037;-71
2021/05/15 00:47:21;;;;;;;10.65;1.63;;;;;;;17.33;68.93;100635.06;5041927;28;20056;-70
2021/05/15 00:49:49;;;;;;;9.15;2.10;;;;;;;16.79;69.01;100555.28;5043690;28;20083;-70
2021/05/15 00:52:16;;;;;;;7.50;2.28;;;;;;;17.28;68.97;100638.88;5041035;28;20053;-69
2021/05/15 00:54:42;;;;;;;4.15;1.48;;;;;;;16.97;68.97;100576.78;5039793;28;20055;-69
2021/05/15 00:57:09;;;;;;;9.73;2.85;;;;;;;17.27;69.16;100631.56;5038641;28;20043;-71
2021/05/15 00:59:35;;;;;;;9.18;2.83;;;;;;;17.20;69.34;100619.91;5034862;28;20029;-70
2021/05/15 01:02:02;;;;;;;5.10;1.98;;;;;;;17.20;69.14;100619.91;5042397;28;20025;-72
2021/05/15 01:04:28;;;;;;;4.43;1.58;;;;;;;17.23;69.04;100624.91;5039260;28;20101;-71
2021/05/15 01:06:54;;;;;;;11.57;1.77;;;;;;;17.28;69.38;100623.91;5043317;28;20124;-70
2021/05/15 01:09:19;;;;;;;4.80;1.70;;;;;;;17.31;69.37;100619.63;5042812;28;20028;-71
2021/05/15 01:11:46;;;;;;;8.85;1.75;;;;;;;17.33;68.94;100620.13;5042402;28;20045;-71
2021/05/15 01:14:12;;;;;;;9.73;2.78;;;;;;;17.36;69.35;100622.28;5042380;28;20029;-71
2021/05/15 01:16:38;;;;;;;7.95;1.80;;;;;;;17.35;69.10;100620.63;5045440;28;20032;-72
2021/05/15 01:19:05;;;;;;;5.47;1.77;;;;;;;17.26;69.11;100604.50;5038217;28;20171;-68
2021/05/15 01:21:35;;;;;;;11.18;2.05;;;;;;;17.17;69.33;100572.56;5037395;28;20158;-68
2021/05/15 01:24:03;;;;;;;12.48;2.13;;;;;;;17.18;69.33;100585.50;5037336;28;20059;-68
2021/05/15 01:26:30;;;;;;;5.13;1.48;;;;;;;17.08;69.16;100565.22;5042480;28;20060;-70
2021/05/15 01:29:01;;;;;;;4.55;1.23;;;;;;;17.09;69.36;100570.53;5036834;28;20053;-69
2021/05/15 01:31:27;;;;;;;4.75;1.40;;;;;;;17.18;69.77;100601.63;5037230;28;20034;-71
2021/05/15 01:33:53;;;;;;;7.25;1.70;;;;;;;17.13;69.32;100576.34;5038725;28;20033;-69
2021/05/15 01:36:21;;;;;;;9.38;1.90;;;;;;;17.16;69.81;100585.03;5045302;28;20056;-68
2021/05/15 01:38:47;;;;;;;7.70;1.95;;;;;;;17.09;69.56;100564.88;5035686;28;20048;-68
2021/05/15 01:41:15;;;;;;;3.05;1.75;;;;;;;17.03;70.28;100572.66;5036249;28;20041;-71
2021/05/15 01:43:41;;;;;;;3.80;1.52;;;;;;;17.11;70.04;100582.31;5039499;28;20535;-69
2021/05/15 01:46:08;;;;;;;12.68;1.73;;;;;;;17.05;69.87;100584.44;5038442;28;20045;-66
2021/05/15 01:48:35;;;;;;;10.45;1.83;;;;;;;17.14;69.91;100586.50;5039897;28;20049;-66
2021/05/15 01:51:03;;;;;;;7.60;2.35;;;;;;;17.14;69.90;100590.16;5036760;28;20036;-67
2021/05/15 01:53:32;;;;;;;10.75;1.65;;;;;;;17.18;69.65;100576.22;5041615;28;20033;-67
2021/05/15 01:55:58;;;;;;;6.38;1.80;;;;;;;17.13;69.99;100574.38;5032035;28;20056;-67
2021/05/15 01:58:24;;;;;;;9.43;1.90;;;;;;;17.15;70.13;100566.41;5041584;28;20029;-68
2021/05/15 02:00:50;;;;;;;4.20;1.65;;;;;;;17.28;69.97;100573.13;5043438;28;20024;-66
2021/05/15 02:03:16;;;;;;;9.07;1.88;;;;;;;17.34;69.88;100579.47;5034471;28;20174;-67
2021/05/15 02:05:42;;;;;;;7.70;2.53;;;;;;;17.34;70.13;100568.16;5033051;28;20038;-66
2021/05/15 02:08:10;;;;;;;8.20;2.38;;;;;;;17.32;69.99;100564.84;5043230;28;20425;-68
2021/05/15 02:10:36;;;;;;;6.40;1.98;;;;;;;17.30;69.85;100556.69;5037905;28;20038;-68
2021/05/15 02:13:02;;;;;;;6.38;1.60;;;;;;;17.30;69.72;100556.69;5033567;28;20026;-68
2021/05/15 02:15:27;;;;;;;8.05;1.65;;;;;;;17.21;70.30;100553.81;5035552;28;20033;-69
2021/05/15 02:17:53;;;;;;;5.75;1.40;;;;;;;17.21;70.09;100534.06;5040294;28;20044;-69
2021/05/15 02:20:18;;;;;;;3.55;1.23;;;;;;;16.98;70.85;100538.09;5038068;28;20498;-70
2021/05/15 02:22:44;;;;;;;5.22;1.80;;;;;;;17.07;70.83;100553.09;5036842;28;20037;-70
2021/05/15 02:25:10;;;;;;;6.53;1.77;;;;;;;17.08;70.61;100551.94;5040500;28;20057;-69
2021/05/15 02:27:36;;;;;;;6.53;2.03;;;;;;;17.11;70.39;100542.81;5039297;28;20043;-69
2021/05/15 02:30:02;;;;;;;8.73;2.00;;;;;;;17.19;70.34;100539.19;5035518;28;20045;-69
2021/05/15 02:32:28;;;;;;;8.77;1.77;;;;;;;17.17;70.05;100541.53;5034771;28;20408;-69
2021/05/15 02:34:53;;;;;;;10.48;2.38;;;;;;;17.25;70.15;100542.72;5039258;28;20480;-69
2021/05/15 02:37:19;;;;;;;8.40;2.17;;;;;;;16.81;70.14;100457.88;5032350;28;20052;-69
2021/05/15 02:39:44;;;;;;;11.32;1.95;;;;;;;17.31;69.81;100534.94;5035927;28;20731;-69
2021/05/15 02:42:11;;;;;;;9.55;2.05;;;;;;;17.28;70.27;100525.97;5031258;28;20115;-68
2021/05/15 02:44:36;;;;;;;15.88;2.25;;;;;;;17.29;70.23;100521.97;5040813;28;20053;-68
2021/05/15 02:47:02;;;;;;;12.40;2.22;;;;;;;17.20;70.10;100509.84;5038005;28;20045;-67
2021/05/15 02:49:27;;;;;;;10.40;2.30;;;;;;;17.23;69.76;100528.94;5035805;28;20043;-69
2021/05/15 02:51:53;;;;;;;12.23;2.25;;;;;;;17.17;70.36;100547.19;5036462;28;20535;-66
2021/05/15 02:54:19;;;;;;;8.82;2.25;;;;;;;17.29;69.76;100550.19;5036454;28;20041;-67
2021/05/15 02:56:47;;;;;;;6.88;2.00;;;;;;;17.27;69.68;100552.53;5036071;28;20030;-67
2021/05/15 02:59:12;;;;;;;9.43;1.85;;;;;;;17.25;70.07;100554.84;5035361;28;20740;-69
2021/05/15 03:01:38;;;;;;;10.00;2.70;;;;;;;17.32;69.82;100553.53;5038428;28;20068;-69
2021/05/15 03:04:03;;;;;;;7.20;1.80;;;;;;;17.33;69.71;100546.72;5032278;28;20029;-71
2021/05/15 03:06:29;;;;;;;6.03;2.13;;;;;;;17.35;69.68;100547.25;5037549;28;20124;-70
2021/05/15 03:08:55;;;;;;;6.60;1.92;;;;;;;17.34;69.62;100531.47;5033764;28;20757;-70
2021/05/15 03:11:20;;;;;;;8.85;1.90;;;;;;;17.19;70.02;100515.78;5035562;28;20431;-71
2021/05/15 03:13:46;;;;;;;9.75;2.03;;;;;;;17.17;69.97;100518.97;5043378;28;20483;-70
2021/05/15 03:16:11;;;;;;;9.02;2.45;;;;;;;17.21;69.88;100519.97;5036461;28;20037;-69
2021/05/15 03:18:37;;;;;;;5.78;2.40;;;;;;;17.31;69.81;100530.13;5034246;28;20033;-68
2021/05/15 03:21:03;;;;;;;14.02;3.00;;;;;;;17.26;69.85;100530.25;5037161;28;20029;-68
2021/05/15 03:23:28;;;;;;;9.57;2.40;;;;;;;17.26;69.64;100538.72;5040280;28;20071;-67
2021/05/15 03:25:54;;;;;;;6.80;2.15;;;;;;;17.31;69.86;100540.59;5036606;28;20407;-67
2021/05/15 03:28:20;;;;;;;16.30;2.92;;;;;;;17.28;70.11;100531.59;5034836;28;20886;-68
2021/05/15 03:30:45;;;;;;;8.60;3.03;;;;;;;17.27;69.94;100524.31;5041427;28;20045;-69
2021/05/15 03:33:11;;;;;;;8.10;2.58;;;;;;;17.28;70.03;100528.78;5031507;28;20029;-70
2021/05/15 03:35:37;;;;;;;14.52;2.20;;;;;;;17.28;69.96;100525.97;5035440;28;20459;-67
2021/05/15 03:38:03;;;;;;;7.50;2.90;;;;;;;17.31;69.57;100530.13;5037003;28;20045;-68
2021/05/15 03:40:29;;;;;;;6.90;2.65;;;;;;;17.26;69.56;100522.66;5035360;28;20071;-68
2021/05/15 03:42:56;;;;;;;8.95;2.55;;;;;;;17.32;70.11;100525.31;5127288;22;20421;-76
2021/05/15 03:45:22;;;;;;;8.63;1.98;;;;;;;17.25;69.70;100522.97;5060954;28;20133;-68
2021/05/15 03:47:48;;;;;;;9.15;2.20;;;;;;;17.23;69.82;100525.25;5083123;28;20028;-68
2021/05/15 03:50:14;;;;;;;8.30;2.45;;;;;;;17.22;70.24;100515.97;5072654;28;20028;-68
2021/05/15 03:52:40;;;;;;;14.70;3.28;;;;;;;17.19;70.20;100513.81;5079974;28;20512;-68
2021/05/15 03:55:06;;;;;;;7.78;2.80;;;;;;;17.11;70.34;100508.97;5072284;28;20040;-71
2021/05/15 03:57:32;;;;;;;12.90;2.22;;;;;;;17.15;70.46;100511.97;5080505;28;20028;-69
2021/05/15 03:59:57;;;;;;;12.43;2.80;;;;;;;17.00;70.00;100499.97;5075521;28;20048;-69
2021/05/15 04:02:24;;;;;;;8.55;2.72;;;;;;;17.09;70.11;100521.72;5079927;28;20044;-69
2021/05/15 04:04:50;;;;;;;11.13;2.65;;;;;;;17.12;70.53;100526.72;5070723;28;20037;-70
2021/05/15 04:07:17;;;;;;;17.05;3.00;;;;;;;16.85;70.77;100489.09;5070938;28;20032;-69
2021/05/15 04:09:42;;;;;;;9.77;2.53;;;;;;;17.03;70.80;100523.88;5081976;28;20048;-69
2021/05/15 04:12:08;;;;;;;8.57;2.40;;;;;;;17.03;70.84;100521.06;5086545;28;20046;-69
2021/05/15 04:14:44;;;;;;;8.85;1.83;;;;;;;16.96;70.70;100510.25;5095593;28;20115;-70
2021/05/15 04:19:35;;;;;;;16.02;3.20;;;;;;;16.74;71.32;100487.69;5102770;28;20035;-71
2021/05/15 04:22:03;;;;;;;8.88;2.72;;;;;;;16.65;71.41;100492.44;5100310;28;20393;-71
2021/05/15 04:24:29;;;;;;;11.40;2.90;;;;;;;16.68;71.92;100505.88;5100799;28;20089;-68
2021/05/15 04:26:57;;;;;;;6.75;2.83;;;;;;;16.62;72.01;100479.84;5102068;27;20525;-67
2021/05/15 04:29:24;;;;;;;9.43;2.35;;;;;;;16.72;71.94;100488.03;5106188;28;20036;-68
2021/05/15 04:31:50;;;;;;;10.70;2.42;;;;;;;16.73;71.99;100486.84;5095414;28;20039;-68
2021/05/15 04:34:16;;;;;;;5.03;1.75;;;;;;;16.74;71.85;100487.69;5104008;28;20161;-68
2021/05/15 04:36:42;;;;;;;8.05;2.83;;;;;;;16.81;71.69;100488.09;5096699;28;20120;-68
2021/05/15 04:39:08;;;;;;;7.15;2.05;;;;;;;16.70;71.84;100487.50;5101760;28;20044;-68
2021/05/15 04:41:34;;;;;;;8.13;2.20;;;;;;;16.74;71.97;100497.00;5098269;28;20424;-69
2021/05/15 04:44:00;;;;;;;12.35;2.72;;;;;;;16.80;71.96;100492.91;5104391;28;20039;-69
2021/05/15 04:46:26;;;;;;;9.25;2.10;;;;;;;16.80;71.85;100498.53;5102058;28;20050;-68
2021/05/15 04:48:52;;;;;;;14.73;3.05;;;;;;;16.84;71.58;100490.25;5097448;28;20062;-69
2021/05/15 04:51:17;;;;;;;11.48;2.60;;;;;;;16.87;71.69;100485.97;5101852;28;20478;-70
2021/05/15 04:53:43;;;;;;;8.10;1.90;;;;;;;16.84;71.92;100497.88;5101698;28;20086;-69
2021/05/15 04:56:09;;;;;;;16.10;2.97;;;;;;;16.64;71.78;100442.84;5099424;28;20148;-74
2021/05/15 04:58:35;;;;;;;6.28;1.98;;;;;;;16.67;72.12;100479.69;5103061;28;20032;-75
2021/05/15 05:01:03;;;;;;;11.07;2.40;;;;;;;16.78;71.91;100486.72;5105044;28;22847;-76
2021/05/15 05:03:29;;;;;;;12.43;2.17;;;;;;;16.84;71.80;100487.44;5104152;28;20462;-71
2021/05/15 05:05:54;;;;;;;8.40;2.42;;;;;;;16.79;72.08;100467.84;5106209;28;20474;-64
2021/05/15 05:08:20;;;;;;;9.63;2.80;;;;;;;16.83;72.09;100468.84;5102464;28;20089;-74
2021/05/15 05:10:46;;;;;;;9.20;3.15;;;;;;;16.81;71.96;100488.91;5096803;28;20036;-75
2021/05/15 05:13:11;;;;;;;5.90;1.77;;;;;;;16.76;72.28;100480.59;5095561;28;20101;-68
2021/05/15 05:15:37;;;;;;;4.00;1.75;;;;;;;16.72;71.88;100468.28;5096196;28;20552;-74
2021/05/15 05:18:02;;;;;;;6.57;2.33;;;;;;;16.74;71.99;100477.25;5094002;28;20516;-68
2021/05/15 05:20:28;;;;;;;5.28;1.67;;;;;;;16.75;72.22;100472.44;5092051;28;20055;-75
2021/05/15 05:22:54;;;;;;;8.45;2.45;;;;;;;16.67;72.30;100470.41;5100828;28;20143;-68
2021/05/15 05:25:19;;;;;;;12.32;2.33;;;;;;;16.69;72.01;100468.09;5093300;28;20073;-71
2021/05/15 05:27:48;;;;;;;6.40;3.10;;;;;;;16.61;72.37;100468.88;5096136;28;20031;-74
2021/05/15 05:30:21;;;;;;;8.40;2.20;;;;;;;16.63;72.45;100469.38;5095748;28;20135;-68
2021/05/15 05:32:50;;;;;;;7.72;2.03;;;;;;;16.76;72.02;100466.50;5100455;28;20056;-73
2021/05/15 05:35:16;;;;;;;2.33;1.30;;;;;;;16.76;72.08;100466.50;5102223;28;20040;-69
2021/05/15 05:37:43;;;;;;;4.40;1.40;;;;;;;16.66;71.89;100460.28;5062838;28;20470;-76
2021/05/15 05:40:10;;;;;;;3.85;1.88;;;;;;;16.68;72.26;100466.41;5104785;28;20093;-65
2021/05/15 05:42:40;;;;;;;7.97;1.88;;;;;;;16.61;71.99;100461.25;5096068;28;20048;-67
2021/05/15 05:45:08;;;;;;;6.90;2.00;;;;;;;16.65;72.17;100467.91;5086459;28;20603;-71
2021/05/15 05:47:34;;;;;;;7.65;2.47;;;;;;;16.64;72.27;100466.22;5095345;28;20036;-65
2021/05/15 05:49:59;;;;;;;9.57;2.15;;;;;;;16.65;72.27;100470.75;5098335;28;20071;-70
2021/05/15 05:52:25;;;;;;;5.32;2.28;;;;;;;16.61;72.19;100475.34;5096358;28;20466;-68
2021/05/15 05:54:50;;;;;;;13.63;2.40;;;;;;;16.68;72.41;100475.69;5096690;28;20423;-70
2021/05/15 05:57:16;;;;;;;5.18;1.50;;;;;;;16.74;72.12;100482.03;5098634;28;20036;-71
2021/05/15 05:59:42;;;;;;;6.00;2.25;;;;;;;16.71;71.84;100465.78;5099675;28;20039;-69
2021/05/15 06:02:07;;;;;;;5.72;2.08;;;;;;;16.68;72.21;100480.50;5100115;28;20036;-72
2021/05/15 06:04:33;;;;;;;10.30;2.00;;;;;;;16.69;72.19;100485.03;5098002;28;20089;-71
2021/05/15 06:06:59;;;;;;;9.15;2.25;;;;;;;16.79;71.67;100485.59;5097423;28;20044;-70
2021/05/15 06:09:25;;;;;;;9.68;2.10;;;;;;;16.93;71.52;100508.06;5097161;28;20027;-73
2021/05/15 06:11:50;;;;;;;7.97;1.80;;;;;;;16.96;71.31;100515.06;5094512;28;20028;-78
2021/05/15 06:14:16;;;;;;;9.15;2.85;;;;;;;17.00;71.26;100516.06;5100386;28;20031;-76
2021/05/15 06:16:41;;;;;;;11.38;2.17;;;;;;;16.90;71.46;100507.88;5101468;28;20020;-76
2021/05/15 06:19:07;;;;;;;6.10;2.92;;;;;;;16.74;71.54;100498.97;5102521;28;20039;-76
2021/05/15 06:21:33;;;;;;;13.68;2.17;;;;;;;16.71;72.09;100506.06;5098101;28;20043;-77
2021/05/15 06:23:59;;;;;;;7.05;1.63;;;;;;;16.61;72.41;100502.69;5098313;28;20480;-77
2021/05/15 06:26:24;;;;;;;12.13;2.20;;;;;;;16.48;72.64;100491.19;5094158;28;20039;-72
2021/05/15 06:28:50;;;;;;;6.57;2.30;;;;;;;16.35;73.13;100509.84;5098067;28;20040;-71
2021/05/15 06:31:16;;;;;;;7.60;2.22;;;;;;;16.21;73.20;100488.53;5097882;28;20027;-78
2021/05/15 06:33:41;;;;;;;4.72;2.08;;;;;;;16.37;73.07;100505.84;5099815;28;20047;-70
2021/05/15 06:36:07;;;;;;;6.97;2.03;;;;;;;16.17;73.81;100501.56;5097636;28;20420;-77
2021/05/15 06:38:32;;;;;;;9.98;2.15;;;;;;;16.17;73.75;100519.31;5102851;28;20081;-78
2021/05/15 06:40:58;;;;;;;9.63;2.78;;;;;;;16.13;73.95;100523.06;5103425;28;20055;-77
2021/05/15 06:43:23;;;;;;;6.30;1.92;;;;;;;16.14;74.07;100531.22;5100669;28;20043;-79
2021/05/15 06:45:49;;;;;;;11.90;3.30;;;;;;;16.18;73.76;100532.25;5096751;28;20032;-79
2021/05/15 06:48:16;;;;;;;6.22;1.77;;;;;;;16.00;74.19;100500.28;5090803;28;20040;-76
2021/05/15 06:50:41;;;;;;;6.82;2.13;;;;;;;15.96;74.67;100504.88;5102450;27;20560;-76
2021/05/15 06:53:07;;;;;;;11.40;3.00;;;;;;;15.80;75.79;100512.84;5095953;28;20050;-75
2021/05/15 06:55:33;;;;;;;5.00;1.58;;;;;;;15.80;76.14;100521.31;5094801;28;20115;-74
2021/05/15 06:58:05;;;;;;;11.63;2.25;;;;;;;15.87;75.13;100516.06;5102642;28;20046;-74
2021/05/15 07:00:32;;;;;;;16.53;2.47;;;;;;;15.96;75.15;100524.59;5096518;28;20644;-73
2021/05/15 07:02:57;;;;;;;11.47;3.57;;;;;;;15.99;75.17;100531.56;5093583;28;20044;-73
2021/05/15 07:05:23;;;;;;;13.02;2.78;;;;;;;15.87;74.90;100509.59;5101228;28;20494;-74
2021/05/15 07:07:49;;;;;;;9.30;2.30;;;;;;;16.01;75.16;100526.47;5097408;28;20036;-72
2021/05/15 07:10:15;;;;;;;14.17;2.43;;;;;;;15.78;75.82;100503.88;5093535;28;20089;-75
2021/05/15 07:12:40;;;;;;;12.43;2.20;;;;;;;15.83;75.83;100520.69;5092946;28;20114;-73
2021/05/15 07:15:07;;;;;;;9.27;2.27;;;;;;;15.75;76.10;100512.13;5099203;28;20071;-72
2021/05/15 07:17:33;;;;;;;12.80;3.15;;;;;;;15.88;76.22;100536.63;5092907;28;20028;-72
2021/05/15 07:19:59;;;;;;;7.70;2.67;;;;;;;15.78;76.85;100546.13;5096777;28;20046;-72
2021/05/15 07:22:26;;;;;;;5.30;2.60;;;;;;;15.70;77.27;100540.41;5094745;28;20650;-71
2021/05/15 07:24:52;;;;;;;9.77;2.65;;;;;;;15.79;76.82;100553.41;5100574;28;20119;-70
2021/05/15 07:27:19;;;;;;;5.25;2.65;;;;;;;15.81;76.73;100551.13;5093668;28;20043;-72
2021/05/15 07:29:45;;;;;;;9.07;2.30;;;;;;;15.77;77.12;100554.91;5091259;28;20051;-73
2021/05/15 07:32:11;;;;;;;12.63;3.27;;;;;;;15.71;77.38;100551.34;5093910;28;20024;-71
2021/05/15 07:34:36;;;;;;;5.73;2.10;;;;;;;15.72;77.41;100530.47;5092585;28;20038;-73
2021/05/15 07:37:02;;;;;;;12.27;3.00;;;;;;;15.70;77.46;100529.16;5089300;28;20047;-74
2021/05/15 07:39:28;;;;;;;11.90;2.93;;;;;;;15.74;77.28;100525.38;5096785;28;20058;-73
2021/05/15 07:41:54;;;;;;;8.73;2.33;;;;;;;15.82;77.13;100530.25;5096002;28;20096;-73
2021/05/15 07:44:21;;;;;;;8.40;2.70;;;;;;;15.91;76.69;100543.59;5097352;28;20043;-72
2021/05/15 07:46:47;;;;;;;13.10;3.40;;;;;;;15.95;76.45;100545.47;5100004;28;20036;-73
2021/05/15 07:49:13;;;;;;;17.00;4.00;;;;;;;16.00;76.49;100538.88;5095631;28;20043;-73
2021/05/15 07:51:39;;;;;;;9.65;2.38;;;;;;;15.82;77.42;100538.69;5093892;28;20093;-72
2021/05/15 07:54:05;;;;;;;8.87;2.27;;;;;;;15.73;78.14;100534.97;5096628;28;20024;-70
2021/05/15 07:56:30;;;;;;;5.87;1.80;;;;;;;15.62;78.91;100533.50;5092804;28;20335;-68
2021/05/15 07:58:56;;;;;;;10.18;2.30;;;;;;;15.51;79.41;100537.69;5092572;28;22072;-69
2021/05/15 08:01:21;;;;;;;4.60;2.42;;;;;;;15.45;79.36;100530.50;5098792;28;20495;-68
2021/05/15 08:03:47;;;;;;;3.67;1.23;;;;;;;15.49;79.74;100525.94;5095535;28;20472;-68
2021/05/15 08:06:13;;;;;;;1.53;0.97;;;;;;;15.37;80.63;100535.72;5097038;28;20078;-69
2021/05/15 08:08:38;;;;;;;4.17;2.30;;;;;;;15.31;80.91;100525.69;5095711;28;20491;-69
2021/05/15 08:11:05;;;;;;;7.00;2.30;;;;;;;15.24;81.22;100511.22;5092271;28;20024;-68
2021/05/15 08:13:31;;;;;;;5.87;2.47;;;;;;;15.27;81.15;100507.78;5098375;28;20055;-69
2021/05/15 08:15:57;;;;;;;6.27;2.40;;;;;;;15.51;80.50;100532.06;5094219;28;20043;-72
2021/05/15 08:18:23;;;;;;;7.00;2.53;;;;;;;15.47;80.88;100522.59;5093072;28;20032;-71
2021/05/15 08:20:49;;;;;;;6.97;2.07;;;;;;;15.48;80.77;100527.06;5090155;28;20052;-72
2021/05/15 08:23:15;;;;;;;10.93;2.43;;;;;;;15.61;80.33;100527.03;5089953;28;20028;-70
2021/05/15 08:25:41;;;;;;;7.43;3.03;;;;;;;15.73;79.63;100508.81;5089748;28;20060;-70
2021/05/15 08:28:11;;;;;;;11.07;3.17;;;;;;;15.77;79.42;100499.41;5089729;28;20071;-70
2021/05/15 08:30:39;;;;;;;12.43;3.63;;;;;;;15.86;78.93;100508.78;5093098;28;20032;-71
2021/05/15 08:33:06;;;;;;;6.53;2.63;;;;;;;15.76;79.58;100514.66;5090050;28;20495;-71
2021/05/15 08:35:32;;;;;;;7.07;1.90;;;;;;;15.81;79.74;100506.06;5090084;28;20059;-72
2021/05/15 08:37:58;;;;;;;5.17;1.70;;;;;;;15.74;80.26;100516.94;5097240;28;20032;-71
2021/05/15 08:40:25;;;;;;;5.57;2.23;;;;;;;15.81;80.56;100525.78;5090179;28;20082;-70
2021/05/15 08:42:53;;;;;;;3.83;1.33;;;;;;;15.79;80.57;100519.63;5089341;28;20447;-73
2021/05/15 08:45:21;;;;;;;5.38;2.60;;;;;;;15.85;80.88;100543.69;5090511;28;20454;-73
2021/05/15 08:47:49;;;;;;;7.28;2.50;;;;;;;15.99;79.91;100534.38;5091094;28;20591;-72
2021/05/15 08:50:17;;;;;;;7.63;3.70;;;;;;;16.08;79.92;100538.97;5090230;28;20454;-72
2021/05/15 08:52:45;;;;;;;6.85;2.65;;;;;;;16.06;80.21;100531.97;5089788;28;20036;-72
2021/05/15 08:55:13;;;;;;;15.68;2.90;;;;;;;16.02;80.47;100528.13;5091741;28;20394;-71
2021/05/15 08:57:40;;;;;;;5.28;2.22;;;;;;;16.10;80.19;100533.00;5093779;28;20563;-71
2021/05/15 09:00:18;;;;;;;7.40;2.80;;;;;;;16.09;80.25;100532.16;5093368;28;20047;-71
2021/05/15 09:02:47;;;;;;;15.98;3.30;;;;;;;16.14;80.17;100536.00;5093997;28;20079;-72
2021/05/15 09:05:16;;;;;;;9.10;3.30;;;;;;;16.20;80.11;100535.56;5096902;28;20043;-72
2021/05/15 09:08:02;;;;;;;8.23;2.88;;;;;;;16.09;80.35;100512.44;5093301;28;20417;-73
2021/05/15 09:10:34;;;;;;;7.78;2.85;;;;;;;16.15;80.46;100538.50;5093103;28;20048;-69
2021/05/15 09:13:07;;;;;;;11.52;3.70;;;;;;;16.21;79.82;100536.41;5093389;28;20102;-73
2021/05/15 09:15:38;;;;;;;6.45;2.13;;;;;;;16.20;80.24;100544.00;5093594;28;20044;-71
2021/05/15 09:18:05;;;;;;;7.20;2.75;;;;;;;16.26;79.83;100539.94;5093052;28;20048;-71
2021/05/15 09:20:37;;;;;;;6.18;2.70;;;;;;;16.34;79.71;100546.78;5093152;28;20508;-71
2021/05/15 09:23:14;;;;;;;5.75;2.47;;;;;;;16.35;80.05;100545.66;5092678;28;20507;-70
2021/05/15 09:25:43;;;;;;;18.10;2.92;;;;;;;16.34;79.83;100552.41;5092357;28;20047;-71
2021/05/15 09:28:10;;;;;;;6.05;2.88;;;;;;;16.37;79.54;100557.41;5093041;28;20433;-70
2021/05/15 09:30:37;;;;;;;9.13;3.28;;;;;;;16.28;79.88;100550.91;5092476;28;20176;-72
2021/05/15 09:33:12;;;;;;;7.22;3.60;;;;;;;16.37;79.82;100551.78;5097753;28;20384;-73
2021/05/15 09:35:39;;;;;;;7.05;3.33;;;;;;;16.41;79.99;100557.59;5092885;28;20071;-73
2021/05/15 09:38:06;;;;;;;4.32;2.15;;;;;;;16.41;79.89;100566.91;5097216;28;20047;-72
2021/05/15 09:40:33;;;;;;;8.13;3.00;;;;;;;16.33;79.82;100557.22;5097406;28;20047;-71
2021/05/15 09:43:08;;;;;;;6.82;3.00;;;;;;;16.47;80.02;100576.91;5098000;28;20528;-70
2021/05/15 09:45:37;;;;;;;7.78;3.40;;;;;;;16.49;80.40;100579.41;5096306;28;20465;-71
2021/05/15 09:48:07;;;;;;;14.38;2.50;;;;;;;16.49;80.12;100571.78;5093374;28;20047;-72
2021/05/15 09:50:35;;;;;;;;;;;;;;;16.59;80.17;100584.78;5093961;28;20051;-72
2021/05/15 09:53:22;;;;;;;5.90;2.25;;;;;;;16.52;80.42;100584.41;5092534;28;20274;-74
2021/05/15 09:55:53;;;;;;;11.82;3.00;;;;;;;16.51;80.25;100577.94;5093887;28;20044;-72
2021/05/15 09:58:20;;;;;;;17.70;3.08;;;;;;;16.55;80.83;100586.59;5092141;28;20044;-74
2021/05/15 10:00:50;;;;;;;5.15;2.20;;;;;;;16.52;80.83;100584.41;5092396;28;20269;-71
2021/05/15 10:03:23;;;;;;;10.90;2.80;;;;;;;16.52;81.16;100588.06;5091992;28;20059;-73
2021/05/15 10:06:05;;;;;;;14.85;3.67;;;;;;;16.61;81.52;100590.94;5091957;28;20560;-73
2021/05/15 10:08:39;;;;;;;15.45;3.28;;;;;;;16.65;81.67;100596.75;5075588;28;20047;-73
2021/05/15 10:11:06;;;;;;;8.13;3.72;;;;;;;16.64;82.05;100598.75;5098598;28;20121;-73
2021/05/15 10:13:35;;;;;;;11.77;2.67;;;;;;;16.66;81.92;100598.44;5095961;28;20068;-73
2021/05/15 10:16:03;;;;;;;10.80;2.75;;;;;;;16.72;82.21;100603.63;5092064;28;20117;-72
2021/05/15 10:18:31;;;;;;;4.60;2.60;;;;;;;16.73;82.41;100599.66;5096187;28;20043;-70
2021/05/15 10:20:59;;;;;;;5.05;2.08;;;;;;;16.66;82.47;100585.19;5091601;28;20055;-72
2021/05/15 10:23:37;;;;;;;10.80;2.45;;;;;;;16.74;82.48;100598.53;5091443;28;20040;-73
2021/05/15 10:26:20;;;;;;;6.68;3.45;;;;;;;16.68;82.95;100588.50;5095007;28;20406;-72
2021/05/15 10:29:05;;;;;;;5.60;2.80;;;;;;;16.63;83.20;100591.44;5093110;28;20118;-73
2021/05/15 10:31:44;;;;;;;3.20;1.90;;;;;;;16.70;83.36;100589.00;5091647;28;20509;-72
2021/05/15 10:34:11;;;;;;;5.50;3.00;;;;;;;16.70;83.07;100597.47;5091877;28;20036;-71
2021/05/15 10:36:49;;;;;;;7.95;2.30;;;;;;;16.72;83.47;100600.81;5092141;28;20152;-72
2021/05/15 10:39:29;;;;;;;10.77;2.88;;;;;;;16.79;83.45;100595.59;5091163;28;20048;-72
2021/05/15 10:41:57;;;;;;;5.00;2.05;;;;;;;16.83;83.45;100594.94;5091319;28;20040;-73
2021/05/15 10:44:24;;;;;;;8.98;2.78;;;;;;;16.74;83.86;100594.84;5091354;28;20071;-72
2021/05/15 10:46:53;;;;;;;10.55;3.13;;;;;;;16.69;83.55;100590.19;5095436;28;20044;-72
2021/05/15 10:49:25;;;;;;;6.90;2.80;;;;;;;16.72;83.33;100591.53;5091711;28;20478;-71
2021/05/15 10:51:55;;;;;;;8.27;3.15;;;;;;;16.76;83.37;100584.94;5091078;28;20479;-71
2021/05/15 10:54:35;;;;;;;8.68;2.78;;;;;;;16.81;83.53;100586.78;5090773;28;20046;-72
2021/05/15 10:57:06;;;;;;;14.23;4.07;;;;;;;16.81;83.66;100593.25;5091715;28;20054;-72
2021/05/15 10:59:35;;;;;;;11.38;3.38;;;;;;;16.84;84.05;100582.50;5091008;28;20052;-71
2021/05/15 11:02:07;;;;;;;5.22;2.17;;;;;;;16.87;83.77;100581.84;5090984;28;20421;-71
2021/05/15 11:04:46;;;;;;;12.95;4.13;;;;;;;16.66;83.67;100548.53;5098480;28;20497;-72
2021/05/15 11:07:13;;;;;;;7.32;3.92;;;;;;;16.76;83.98;100565.22;5090931;28;20123;-72
2021/05/15 11:10:03;;;;;;;8.57;3.85;;;;;;;16.92;84.18;100587.34;5091077;28;20044;-72
2021/05/15 11:12:40;;;;;;;11.40;3.40;;;;;;;16.93;83.87;100587.03;5090679;28;20152;-72
2021/05/15 11:15:10;;;;;;;13.25;3.92;;;;;;;16.98;84.12;100584.06;5090432;28;20048;-72
2021/05/15 11:17:37;;;;;;;19.27;4.97;;;;;;;17.02;84.05;100579.44;5089614;28;20048;-71
2021/05/15 11:20:12;;;;;;;14.65;4.65;;;;;;;17.00;83.97;100581.78;5098095;28;20097;-71
2021/05/15 11:22:49;;;;;;;19.50;4.75;;;;;;;17.05;84.44;100566.69;5090239;28;20040;-71
2021/05/15 11:25:28;;;;;;;10.38;3.83;;;;;;;16.98;84.61;100563.50;5090368;28;20509;-71